Flight Track Log - Related Links

Times and Time Zones

All times are in EDT time to prevent confusion due to time zone crossing. See the SKW6440 flight status page for this flight to view local times or setup timezone preferences in your user account.

Time Position Orientation Groundspeed Altitude Reporting Facility
EDT Latitude Longitude Course Direction KTS MPH feet Rate Location/Type
Sun 06:36:48 PM 38.8222 -104.6061 245° Southwest 243 280 8,900  Level Denver Center
Sun 06:37:50 PM 38.7683 -104.5197 129° Southeast 274 315 10,500 1,742 Climbing Denver Center
Sun 06:38:52 PM 38.7028 -104.4581 144° Southeast 314 361 12,500 2,032 Climbing Denver Center
Sun 06:39:54 PM 38.6050 -104.4492 176° South 317 365 14,700 1,839 Climbing Denver Center
Sun 06:40:56 PM 38.5178 -104.4444 178° South 326 375 16,300 1,597 Climbing Denver Center
Sun 06:41:00 PM 38.3130 -104.4315 159° South  Level FlightAware Approximate
Sun 06:41:58 PM 38.4075 -104.4381 177° South 351 404 18,000  Level Denver Center
Sun 06:42:00 PM 38.2512 -104.5024 245° Southwest  Level FlightAware Approximate
Sun 06:43:00 PM 38.3117 -104.4369 179° South 357 411 19,500  Level Denver Center
Sun 06:44:02 PM 38.2481 -104.5447 233° Southwest 347 399 21,000 1,452 Climbing Denver Center
Sun 06:45:04 PM 38.2058 -104.6508 243° Southwest 350 403 22,500 1,452 Climbing Denver Center
Sun 06:46:06 PM 38.1550 -104.7778 243° Southwest 357 411 24,000 1,258 Climbing Denver Center
Sun 06:47:08 PM 38.1111 -104.8878 243° Southwest 363 418 25,100 1,161 Climbing Denver Center
Sun 06:48:10 PM 38.0578 -105.0164 242° Southwest 368 423 26,400 1,161 Climbing Denver Center
Sun 06:49:12 PM 38.0119 -105.1292 243° Southwest 373 429 27,500 968 Climbing Denver Center
Sun 06:50:14 PM 37.9747 -105.2236 243° Southwest 376 433 28,400 1,065 Climbing Denver Center
Sun 06:51:16 PM 37.9122 -105.3725 242° Southwest 377 434 29,700 1,147 Climbing Denver Center
Sun 06:52:30 PM 37.8517 -105.5225 243° Southwest 377 434 31,000 770 Climbing Denver Center
Sun 06:53:44 PM 37.8044 -105.6347 242° Southwest 378 435 31,600 529 Climbing Denver Center
Sun 06:54:46 PM 37.7394 -105.7906 242° Southwest 392 451 32,200 529 Climbing Denver Center
Sun 06:56:00 PM 37.6811 -105.9308 242° Southwest 404 465 32,800 574 Climbing Denver Center
Sun 06:57:02 PM 37.6217 -106.0733 242° Southwest 410 472 33,500 581 Climbing Denver Center
Sun 06:58:04 PM 37.5617 -106.2181 242° Southwest 406 467 34,000 242 Climbing Denver Center
Sun 06:59:06 PM 37.5117 -106.3375 242° Southwest 402 463 34,000 48 Level Denver Center
Sun 07:00:08 PM 37.4617 -106.4583 242° Southwest 406 467 34,100 339 Climbing Denver Center
Sun 07:01:10 PM 37.4006 -106.6000 242° Southwest 411 473 34,700 532 Climbing Denver Center
Sun 07:02:12 PM 37.3494 -106.7228 242° Southwest 415 478 35,200 532 Climbing Denver Center
Sun 07:03:14 PM 37.2869 -106.8644 241° Southwest 415 478 35,800 390 Climbing Denver Center
Sun 07:04:15 PM 37.2431 -106.9669 242° Southwest 416 479 36,000 98 Climbing Denver Center
Sun 07:05:17 PM 37.1711 -107.1308 241° Southwest 420 483 36,000  Level Denver Center
Sun 07:06:19 PM 37.0917 -107.2289 225° Southwest 417 480 36,000  Level Denver Center
Sun 07:07:21 PM 36.9756 -107.3144 210° Southwest 433 498 36,000  Level Denver Center
Sun 07:08:23 PM 36.8756 -107.3867 210° Southwest 433 498 36,000  Level Denver Center
Sun 07:09:25 PM 36.7797 -107.4592 211° Southwest 424 488 36,000  Level Denver Center
Sun 07:10:27 PM 36.6703 -107.5411 211° Southwest 413 475 36,000  Level Denver Center
Sun 07:11:28 PM 36.5919 -107.5983 210° Southwest 409 471 36,000  Level Denver Center
Sun 07:12:30 PM 36.4661 -107.6919 211° Southwest 411 473 36,000  Level Denver Center
Sun 07:13:32 PM 36.3714 -107.7614 211° Southwest 410 472 36,000  Level Denver Center
Sun 07:14:34 PM 36.2583 -107.8422 210° Southwest 416 479 36,000  Level Denver Center
Sun 07:15:46 PM 36.1378 -107.9122 205° Southwest 432 497 36,000  Level Albuquerque Center
Sun 07:16:47 PM 36.0081 -107.9550 195° South 432 497 36,000  Level Albuquerque Center
Sun 07:17:49 PM 35.8964 -107.9931 195° South 432 497 36,000  Level Albuquerque Center
Sun 07:18:50 PM 35.7869 -108.0300 195° South 428 493 36,000  Level Albuquerque Center
Sun 07:19:51 PM 35.6619 -108.0714 195° South 420 483 36,000  Level Albuquerque Center
Sun 07:20:53 PM 35.5639 -108.1275 205° Southwest 411 473 36,000  Level Albuquerque Center
Sun 07:21:54 PM 35.4756 -108.2053 216° Southwest 406 467 36,000  Level Albuquerque Center
Sun 07:22:56 PM 35.3758 -108.2961 217° Southwest 401 461 36,000  Level Albuquerque Center
Sun 07:23:57 PM 35.2897 -108.3733 216° Southwest 400 460 36,000  Level Albuquerque Center
Sun 07:24:58 PM 35.1878 -108.4644 216° Southwest 402 463 36,000  Level Albuquerque Center
Sun 07:26:00 PM 35.0989 -108.5461 217° Southwest 410 472 36,000  Level Albuquerque Center
Sun 07:27:01 PM 35.0094 -108.6258 216° Southwest 414 476 36,000  Level Albuquerque Center
Sun 07:28:03 PM 34.9047 -108.7192 216° Southwest 416 479 36,000  Level Albuquerque Center
Sun 07:29:04 PM 34.8139 -108.8000 216° Southwest 419 482 36,000  Level Albuquerque Center
Sun 07:30:05 PM 34.7242 -108.8783 216° Southwest 416 479 36,000  Level Albuquerque Center
Sun 07:31:07 PM 34.6183 -108.9714 216° Southwest 418 481 36,000  Level Albuquerque Center
Sun 07:32:08 PM 34.5281 -109.0506 216° Southwest 418 481 36,000  Level Albuquerque Center
Sun 07:33:10 PM 34.4433 -109.1686 229° Southwest 418 481 36,000  Level Albuquerque Center
Sun 07:34:11 PM 34.4192 -109.3014 258° West 422 486 36,000  Level Albuquerque Center
Sun 07:35:13 PM 34.4144 -109.4425 268° West 434 499 36,000  Level Albuquerque Center
Sun 07:36:14 PM 34.4081 -109.6017 267° West 428 493 36,000  Level Albuquerque Center
Sun 07:37:15 PM 34.4025 -109.7406 267° West 428 493 36,000  Level Albuquerque Center
Sun 07:38:17 PM 34.3956 -109.9031 267° West 431 496 36,000  Level Albuquerque Center
Sun 07:39:18 PM 34.3903 -110.0425 267° West 432 497 36,000  Level Albuquerque Center
Sun 07:40:20 PM 34.3844 -110.1814 267° West 432 497 36,000  Level Albuquerque Center
Sun 07:41:21 PM 34.3764 -110.3422 267° West 430 495 36,000  Level Albuquerque Center
Sun 07:42:23 PM 34.3717 -110.4800 268° West 438 504 36,000  Level Albuquerque Center
Sun 07:43:24 PM 34.3658 -110.6256 267° West 438 504 36,000  Level Albuquerque Center
Sun 07:44:26 PM 34.3564 -110.7681 265° West 431 496 36,000  Level Albuquerque Center
Sun 07:45:27 PM 34.3475 -110.9425 267° West 433 498 36,000  Level Albuquerque Center
Sun 07:46:29 PM 34.3392 -111.0864 266° West 432 497 36,000  Level Albuquerque Center
Sun 07:47:30 PM 34.3314 -111.2303 266° West 432 497 36,000  Level Albuquerque Center
Sun 07:48:32 PM 34.3244 -111.3747 267° West 432 497 36,000  Level Albuquerque Center
Sun 07:49:33 PM 34.3169 -111.5183 266° West 432 497 36,000  Level Albuquerque Center
Sun 07:50:35 PM 34.3089 -111.6625 266° West 433 498 36,000  Level Albuquerque Center
Sun 07:51:36 PM 34.3011 -111.8067 266° West 435 501 36,000  Level Albuquerque Center
Sun 07:52:38 PM 34.2903 -111.9806 266° West 437 503 36,000  Level Albuquerque Center
Sun 07:53:40 PM 34.2811 -112.1247 266° West 436 502 36,000  Level Albuquerque Center
Sun 07:54:41 PM 34.2725 -112.2697 266° West 436 502 36,000  Level Albuquerque Center
Sun 07:55:43 PM 34.2642 -112.4139 266° West 435 501 36,000  Level Albuquerque Center
Sun 07:56:44 PM 34.2544 -112.5594 265° West 435 501 36,000  Level Albuquerque Center
Sun 07:57:46 PM 34.2456 -112.7036 266° West 433 498 36,000  Level Albuquerque Center
Sun 07:58:47 PM 34.2347 -112.8769 266° West 434 499 36,000  Level Albuquerque Center
Sun 07:59:49 PM 34.2244 -113.0228 265° West 435 501 36,000  Level Albuquerque Center
Sun 08:00:50 PM 34.2144 -113.1672 265° West 435 501 36,000  Level Albuquerque Center
Sun 08:01:52 PM 34.2050 -113.3114 266° West 431 496 36,000  Level Albuquerque Center
Sun 08:02:53 PM 34.1947 -113.4569 265° West 435 501 36,000  Level Albuquerque Center
Sun 08:03:55 PM 34.1839 -113.6014 265° West 435 501 36,000  Level Albuquerque Center
Sun 08:04:56 PM 34.1728 -113.7464 265° West 435 501 36,000  Level Albuquerque Center
Sun 08:05:58 PM 34.1631 -113.8919 265° West 435 501 36,000  Level Albuquerque Center
Sun 08:07:00 PM 34.1494 -114.0661 265° West 435 501 36,000  Level Albuquerque Center
Sun 08:08:01 PM 34.1386 -114.2117 265° West 437 503 36,000 -341 Level Albuquerque Center
Sun 08:09:03 PM 34.1281 -114.3419 264° West 438 504 35,300 -788 Descending Albuquerque Center
Sun 08:09:40 PM 34.1222 -114.4328 266° West 435 501 34,700 -788 Descending Los Angeles Center
Sun 08:10:42 PM 34.1086 -114.6075 265° West 437 503 34,000 -339 Descending Los Angeles Center
Sun 08:11:44 PM 34.1028 -114.7514 267° West 435 501 34,000  Level Los Angeles Center
Sun 08:12:46 PM 34.1053 -114.8953 271° West 431 496 34,000  Level Los Angeles Center
Sun 08:13:48 PM 34.1078 -115.0389 271° West 430 495 34,000  Level Los Angeles Center
Sun 08:14:50 PM 34.1086 -115.1831 270° West 433 498 34,000  Level Los Angeles Center
Sun 08:15:52 PM 34.1106 -115.3272 271° West 432 497 34,000 -484 Level Los Angeles Center
Sun 08:16:54 PM 34.1108 -115.4703 270° West 428 493 33,000 -1,065 Descending Los Angeles Center
Sun 08:17:56 PM 34.1122 -115.6378 271° West 421 484 31,800 -1,065 Descending Los Angeles Center
Sun 08:18:58 PM 34.1108 -115.7767 269° West 417 480 30,800 -960 Descending Los Angeles Center
Sun 08:20:01 PM 34.0925 -115.9125 261° West 413 475 29,800 -960 Descending Los Angeles Center
Sun 08:21:03 PM 34.0706 -116.0492 259° West 415 478 28,800 -1,161 Descending Los Angeles Center
Sun 08:22:05 PM 34.0464 -116.2128 260° West 417 480 27,400 -1,452 Descending Los Angeles Center
Sun 08:23:07 PM 34.0264 -116.3472 260° West 409 471 25,800 -1,548 Descending Los Angeles Center
Sun 08:24:09 PM 34.0061 -116.4789 260° West 402 463 24,200 -1,548 Descending Los Angeles Center
Sun 08:25:11 PM 33.9958 -116.6106 265° West 397 457 22,600 -1,548 Descending Los Angeles Center
Sun 08:26:13 PM 33.9844 -116.7392 264° West 390 449 21,000 -1,548 Descending Los Angeles Center
Sun 08:27:15 PM 33.9744 -116.8658 265° West 384 442 19,400 -1,723 Descending Los Angeles Center
Sun 08:27:47 PM 33.9667 -116.9500 264° West 370 426 18,300 -1,630 Descending Southern California TRACON
Sun 08:28:47 PM 33.9833 -117.0833 279° West 365 420 16,900 -1,100 Descending Southern California TRACON
Sun 08:29:47 PM 33.9833 -117.2000 270° West 367 422 16,100 -1,140 Descending Southern California TRACON
Sun 08:30:48 PM 33.9833 -117.3167 270° West 359 413 14,600 -1,513 Descending Southern California TRACON
Sun 08:31:42 PM 34.0000 -117.4333 280° West 353 406 13,200 -1,579 Descending Southern California TRACON
Sun 08:32:42 PM 34.0000 -117.5500 270° West 355 409 11,600 -1,438 Descending Southern California TRACON
Sun 08:33:43 PM 34.0000 -117.6667 270° West 318 366 10,300 -992 Descending Southern California TRACON
Sun 08:34:43 PM 34.0000 -117.7667 270° West 288 331 9,600 -1,100 Descending Southern California TRACON
Sun 08:35:43 PM 33.9833 -117.8667 259° West 292 336 8,100 -1,450 Descending Southern California TRACON
Sun 08:36:43 PM 33.9833 -117.9500 270° West 286 329 6,700 -1,421 Descending Southern California TRACON
Sun 08:37:37 PM 33.9667 -118.0333 256° West 278 320 5,400 -1,100 Descending Southern California TRACON
Sun 08:38:43 PM 33.9667 -118.1333 270° West 234 269 4,500 -992 Descending Southern California TRACON
Sun 08:39:44 PM 33.9500 -118.2000 253° West 218 251 3,300 -1,240 Descending Southern California TRACON
Sun 08:40:44 PM 33.9500 -118.2667 270° West 187 215 2,000 -1,000 Descending Southern California TRACON
Sun 08:41:38 PM 33.9500 -118.3167 270° West 158 182 1,400 -744 Descending Southern California TRACON
Sun 08:42:45 PM 33.9333 -118.3667 248° West 125 144 500 -550 Descending Southern California TRACON
Sun 08:43:49 PM 33.9369 -118.4011 277° West 140 161 200 -281 Descending Los Angeles Center

Login

Don't have an account? Register now (free) for customized features, flight alerts, and more!